Time;durP1;ratioP1;P1;durP2;ratioP2;P2;SDS_P1;SDS_P2;PMS_P1;PMS_P2;Temp;Humidity;BMP_temperature;BMP_pressure;BME280_temperature;BME280_humidity;BME280_pressure;Samples;Min_cycle;Max_cycle;Signal;HPM_P1;HPM_P2
2024/03/05 00:00:58;;;;;;;13.70;8.20;;;;;;;5.42;60.92;98639.02;105123;1267;61115;-28
2024/03/05 00:03:27;;;;;;;18.60;9.20;;;;;;;5.31;61.01;98639.27;105100;1264;72803;-28
2024/03/05 00:05:55;;;;;;;15.80;8.80;;;;;;;5.16;61.40;98637.65;105092;1264;73043;-28
2024/03/05 00:08:23;;;;;;;20.20;9.10;;;;;;;4.99;62.04;98636.86;105671;1257;71461;-28
2024/03/05 00:10:53;;;;;;;18.00;9.40;;;;;;;4.87;62.46;98639.34;105588;1254;60981;-28
2024/03/05 00:13:24;;;;;;;12.60;6.90;;;;;;;4.74;62.91;98635.17;105581;1254;61046;-28
2024/03/05 00:15:52;;;;;;;16.60;8.80;;;;;;;5.36;62.17;98632.20;105629;1254;73006;-28
2024/03/05 00:25:57;;;;;;;22.20;10.50;;;;;;;5.46;61.31;98630.86;102749;1294;599343;-25
2024/03/05 00:28:25;;;;;;;21.20;9.50;;;;;;;5.35;61.17;98631.73;105047;1269;61157;-25
2024/03/05 00:30:53;;;;;;;19.20;8.60;;;;;;;5.22;61.39;98635.00;104843;1270;61116;-25
2024/03/05 00:33:21;;;;;;;17.50;8.00;;;;;;;4.97;61.99;98635.05;104914;1270;70937;-25
2024/03/05 00:35:49;;;;;;;14.40;7.80;;;;;;;4.79;62.67;98637.06;105113;1269;72743;-27
2024/03/05 00:38:17;;;;;;;17.10;7.20;;;;;;;4.62;63.62;98636.25;105590;1260;72683;-27
2024/03/05 00:40:59;;;;;;;18.40;6.80;;;;;;;4.49;64.32;98635.19;105165;1262;61253;-28
2024/03/05 00:43:27;;;;;;;8.80;4.80;;;;;;;4.75;64.23;98634.20;105553;1256;61052;-28
2024/03/05 00:45:55;;;;;;;13.90;7.30;;;;;;;5.48;62.31;98636.41;105602;1257;72241;-28
2024/03/05 00:48:23;;;;;;;18.60;7.30;;;;;;;5.64;61.41;98632.21;105598;1254;73314;-28
2024/03/05 00:50:51;;;;;;;17.00;7.90;;;;;;;5.56;61.25;98637.91;105492;1263;72693;-28
2024/03/05 00:53:20;;;;;;;18.90;8.20;;;;;;;5.41;61.63;98637.17;105509;1257;61065;-28
2024/03/05 00:55:48;;;;;;;9.40;6.70;;;;;;;5.18;62.19;98636.81;105605;1259;61098;-28
2024/03/05 00:58:16;;;;;;;18.50;9.10;;;;;;;5.03;62.59;98634.70;105597;1255;72030;-28
2024/03/05 01:00:45;;;;;;;17.70;9.30;;;;;;;4.85;62.93;98637.38;105610;1257;74354;-28
2024/03/05 01:03:13;;;;;;;16.30;8.30;;;;;;;4.69;63.67;98636.16;105515;1257;72675;-28
2024/03/05 01:13:19;;;;;;;19.40;8.30;;;;;;;5.45;62.45;98627.64;102654;1292;600123;-25
2024/03/05 01:23:28;;;;;;;18.80;9.70;;;;;;;5.01;63.03;98630.50;102721;1295;599021;-28
2024/03/05 01:25:58;;;;;;;18.90;9.80;;;;;;;4.82;63.31;98627.13;105139;1268;61261;-28
2024/03/05 01:28:29;;;;;;;19.60;8.50;;;;;;;4.65;64.04;98629.39;105130;1269;61116;-29
2024/03/05 01:30:58;;;;;;;11.50;5.50;;;;;;;4.51;64.29;98629.39;104839;1272;71264;-28
2024/03/05 01:33:27;;;;;;;17.50;9.20;;;;;;;4.35;64.78;98630.54;104882;1270;73177;-28
2024/03/05 01:35:56;;;;;;;13.00;6.80;;;;;;;4.24;65.46;98631.23;105218;1260;172632;-28
2024/03/05 01:38:27;;;;;;;14.50;6.80;;;;;;;4.83;64.39;98635.07;105222;1263;61133;-28
2024/03/05 01:40:55;;;;;;;16.20;8.40;;;;;;;5.29;62.86;98638.18;105362;1266;61186;-28
2024/03/05 01:43:23;;;;;;;10.90;5.70;;;;;;;5.29;62.54;98641.10;105545;1258;72199;-28
2024/03/05 01:53:32;;;;;;;23.50;10.10;;;;;;;4.58;64.76;98643.04;102684;1292;599437;-25
2024/03/05 01:56:00;;;;;;;16.10;8.70;;;;;;;4.39;65.28;98650.38;104838;1266;61184;-25
2024/03/05 02:06:10;;;;;;;13.10;7.00;;;;;;;5.42;62.89;98651.11;102746;1294;599822;-25
2024/03/05 02:08:38;;;;;;;10.90;6.10;;;;;;;5.29;62.55;98654.31;105157;1268;61149;-28
2024/03/05 02:11:08;;;;;;;16.10;8.50;;;;;;;5.03;63.14;98655.52;104889;1270;61145;-28
2024/03/05 02:13:38;;;;;;;14.60;8.20;;;;;;;4.87;63.37;98658.27;104760;1273;71091;-25
2024/03/05 02:23:47;;;;;;;15.90;8.20;;;;;;;4.26;65.32;98656.54;102761;1290;599389;-25
2024/03/05 02:26:17;;;;;;;10.10;5.60;;;;;;;4.00;66.26;98658.98;105108;1270;61171;-25
2024/03/05 02:36:48;;;;;;;15.20;6.60;;;;;;;5.07;63.31;98662.33;102501;1292;616442;-27
2024/03/05 02:39:17;;;;;;;20.20;8.20;;;;;;;4.81;63.79;98662.77;105118;1269;61072;-27
2024/03/05 02:41:44;;;;;;;18.50;8.80;;;;;;;4.60;64.35;98663.87;105064;1270;61216;-27
2024/03/05 02:44:11;;;;;;;17.00;7.20;;;;;;;4.43;64.69;98666.98;105090;1267;72158;-27
2024/03/05 02:46:39;;;;;;;16.50;8.90;;;;;;;4.23;65.17;98667.87;105104;1267;74107;-27
2024/03/05 02:49:06;;;;;;;21.10;9.70;;;;;;;4.06;65.38;98668.03;105164;1264;191367;-27
2024/03/05 02:51:33;;;;;;;14.60;7.90;;;;;;;3.78;66.85;98668.17;105425;1263;61249;-27
2024/03/05 02:54:01;;;;;;;12.10;8.00;;;;;;;4.29;66.44;98669.40;105286;1260;61242;-27
2024/03/05 02:56:28;;;;;;;19.20;9.80;;;;;;;4.70;65.03;98669.66;105401;1263;72092;-27
2024/03/05 02:58:55;;;;;;;11.20;6.20;;;;;;;4.72;64.68;98671.20;105385;1265;74301;-27
2024/03/05 03:01:24;;;;;;;20.40;10.50;;;;;;;4.57;65.01;98673.00;105367;1261;72510;-27
2024/03/05 03:03:51;;;;;;;19.50;8.50;;;;;;;4.44;65.34;98674.68;105382;1261;61061;-27
2024/03/05 03:06:19;;;;;;;12.10;6.40;;;;;;;4.19;65.97;98679.33;105378;1261;61210;-27
2024/03/05 03:08:46;;;;;;;18.50;9.20;;;;;;;4.03;66.62;98678.89;105233;1265;72999;-27
2024/03/05 03:11:17;;;;;;;23.90;10.50;;;;;;;3.90;66.63;98676.37;105271;1267;74306;-28
2024/03/05 03:13:46;;;;;;;23.40;7.80;;;;;;;4.03;67.13;98678.88;105149;1266;72611;-27
2024/03/05 03:16:14;;;;;;;16.70;8.10;;;;;;;4.69;65.38;98682.27;105220;1261;61093;-27
2024/03/05 03:18:44;;;;;;;15.10;8.90;;;;;;;4.85;64.36;98683.80;105231;1270;61124;-27
2024/03/05 03:21:11;;;;;;;11.90;8.30;;;;;;;4.71;64.32;98681.58;105242;1267;74157;-27
2024/03/05 03:23:38;;;;;;;13.00;7.50;;;;;;;4.47;64.82;98678.60;105227;1266;74861;-28
2024/03/05 03:26:06;;;;;;;16.30;8.40;;;;;;;4.19;65.86;98682.04;105249;1265;72562;-27
2024/03/05 03:28:34;;;;;;;20.60;10.40;;;;;;;3.98;66.61;98680.38;105232;1260;61065;-27
2024/03/05 03:31:01;;;;;;;18.30;9.40;;;;;;;3.84;66.80;98677.95;105290;1261;61183;-27
2024/03/05 03:33:28;;;;;;;14.70;6.70;;;;;;;3.63;67.45;98679.36;105244;1265;72841;-27
2024/03/05 03:35:55;;;;;;;12.50;6.80;;;;;;;4.22;66.83;98684.44;105212;1267;74872;-27
2024/03/05 03:38:23;;;;;;;15.40;7.90;;;;;;;4.70;65.31;98688.21;105219;1265;72376;-28
2024/03/05 03:40:51;;;;;;;11.20;6.70;;;;;;;4.70;64.69;98688.21;105154;1266;61090;-27
2024/03/05 03:43:19;;;;;;;16.70;9.30;;;;;;;4.46;65.25;98690.55;105133;1266;61118;-27
2024/03/05 03:45:47;;;;;;;9.60;4.60;;;;;;;4.26;65.67;98689.16;105229;1264;72913;-27
2024/03/05 03:48:14;;;;;;;8.30;5.70;;;;;;;4.01;66.47;98688.80;105142;1264;74361;-27
2024/03/05 03:50:43;;;;;;;12.30;7.00;;;;;;;3.86;66.77;98691.05;105126;1269;72668;-27
2024/03/05 03:53:11;;;;;;;17.70;9.30;;;;;;;3.67;67.27;98692.34;105061;1266;61068;-27
2024/03/05 03:55:38;;;;;;;10.00;5.80;;;;;;;3.80;67.86;98691.02;105114;1265;61128;-27
2024/03/05 03:58:07;;;;;;;17.10;7.90;;;;;;;4.46;66.26;98696.35;105108;1266;72956;-27
2024/03/05 04:00:34;;;;;;;14.60;7.90;;;;;;;4.64;65.40;98702.14;105205;1265;74207;-27
2024/03/05 04:03:01;;;;;;;17.20;9.30;;;;;;;4.50;65.47;98705.45;105012;1266;72664;-27
2024/03/05 04:05:28;;;;;;;18.10;8.90;;;;;;;4.30;65.98;98708.90;105019;1264;61116;-27
2024/03/05 04:07:55;;;;;;;12.80;7.70;;;;;;;4.04;66.67;98703.58;105113;1267;61103;-27
2024/03/05 04:10:22;;;;;;;13.40;6.90;;;;;;;3.78;67.62;98710.60;105062;1267;72823;-27
2024/03/05 04:12:49;;;;;;;20.60;9.70;;;;;;;3.64;68.17;98713.29;105096;1264;74756;-27
2024/03/05 04:15:18;;;;;;;9.70;6.20;;;;;;;3.49;68.96;98711.78;105214;1261;72496;-27
2024/03/05 04:17:45;;;;;;;14.50;6.90;;;;;;;4.13;67.91;98715.39;105201;1267;61090;-28
2024/03/05 04:20:14;;;;;;;16.60;8.10;;;;;;;4.47;66.95;98717.13;105066;1265;61123;-27
2024/03/05 04:22:42;;;;;;;13.00;6.90;;;;;;;4.46;66.50;98718.77;105063;1265;72784;-27
2024/03/05 04:25:09;;;;;;;17.40;9.10;;;;;;;4.27;66.60;98716.42;105312;1257;74306;-28
2024/03/05 04:27:41;;;;;;;13.60;8.40;;;;;;;4.02;67.10;98711.05;105536;1257;72975;-28
2024/03/05 04:30:12;;;;;;;15.30;6.10;;;;;;;3.79;67.79;98715.55;105295;1258;61128;-28
2024/03/05 04:32:46;;;;;;;13.70;7.80;;;;;;;3.54;68.56;98716.77;105630;1261;61104;-28
2024/03/05 04:35:24;;;;;;;16.00;7.60;;;;;;;3.29;69.88;98717.34;105361;1258;73087;-28
2024/03/05 04:37:51;;;;;;;18.50;9.00;;;;;;;3.38;70.36;98714.45;105550;1257;74661;-28
2024/03/05 04:40:19;;;;;;;14.90;8.10;;;;;;;3.96;68.96;98715.20;105608;1258;72566;-27
2024/03/05 04:42:48;;;;;;;10.30;6.20;;;;;;;4.20;67.92;98713.63;105297;1257;61735;-27
2024/03/05 04:45:16;;;;;;;16.40;9.40;;;;;;;4.08;68.14;98711.07;105512;1255;61106;-27
2024/03/05 04:47:44;;;;;;;15.00;7.30;;;;;;;3.87;68.72;98709.03;105551;1260;73013;-27
2024/03/05 04:50:12;;;;;;;10.10;5.40;;;;;;;3.71;69.27;98709.94;105848;1254;74244;-27
2024/03/05 04:52:39;;;;;;;10.50;6.50;;;;;;;3.56;69.48;98707.56;105840;1254;72885;-27
2024/03/05 04:55:08;;;;;;;15.00;8.60;;;;;;;3.38;70.18;98711.86;105501;1257;61052;-26
2024/03/05 04:57:35;;;;;;;13.20;6.90;;;;;;;3.73;70.10;98708.11;105509;1254;61112;-27
2024/03/05 05:00:04;;;;;;;11.70;7.30;;;;;;;4.27;68.32;98712.66;105667;1254;72835;-27
2024/03/05 05:02:31;;;;;;;9.70;5.90;;;;;;;4.32;67.83;98713.05;105677;1254;73049;-27
2024/03/05 05:04:59;;;;;;;17.20;9.30;;;;;;;4.11;68.27;98714.30;105717;1254;72396;-27
2024/03/05 05:07:26;;;;;;;19.00;9.80;;;;;;;3.85;69.15;98717.36;105743;1255;61068;-27
2024/03/05 05:09:53;;;;;;;21.20;9.80;;;;;;;3.64;70.11;98720.28;105895;1254;61077;-28
2024/03/05 05:12:20;;;;;;;12.80;7.90;;;;;;;3.46;70.99;98723.25;105876;1257;72847;-27
2024/03/05 05:14:47;;;;;;;14.00;8.00;;;;;;;3.74;70.88;98725.23;105889;1255;74158;-27
2024/03/05 05:17:15;;;;;;;10.40;5.70;;;;;;;4.28;69.31;98726.52;105883;1254;72485;-27
2024/03/05 05:19:42;;;;;;;10.00;5.80;;;;;;;4.40;68.56;98729.23;105786;1253;61093;-27
2024/03/05 05:22:09;;;;;;;11.40;6.60;;;;;;;4.43;68.29;98732.83;105674;1257;61109;-27
2024/03/05 05:24:36;;;;;;;13.30;8.90;;;;;;;4.33;68.39;98730.33;105850;1254;72845;-27
2024/03/05 05:27:04;;;;;;;15.90;9.00;;;;;;;4.21;68.75;98728.66;105705;1254;74210;-26
2024/03/05 05:29:31;;;;;;;24.00;10.70;;;;;;;4.08;69.33;98728.59;105683;1254;72692;-26
2024/03/05 05:32:08;;;;;;;13.50;6.40;;;;;;;4.41;69.33;98733.98;105676;1257;61049;-27
2024/03/05 05:34:35;;;;;;;19.50;9.90;;;;;;;5.15;67.07;98734.09;105585;1257;61112;-27
2024/03/05 05:37:04;;;;;;;16.50;7.10;;;;;;;5.37;65.83;98733.34;105766;1254;72975;-27
2024/03/05 05:39:32;;;;;;;21.40;10.40;;;;;;;5.32;65.71;98737.13;105868;1257;74798;-27
2024/03/05 05:41:59;;;;;;;10.20;6.50;;;;;;;5.16;66.04;98740.89;105526;1254;72072;-27
2024/03/05 05:44:26;;;;;;;22.10;10.60;;;;;;;4.98;66.61;98741.35;105778;1254;61007;-26
2024/03/05 05:46:53;;;;;;;18.10;9.00;;;;;;;4.88;66.97;98746.38;105833;1254;61057;-27
2024/03/05 05:49:20;;;;;;;15.10;9.00;;;;;;;4.73;67.56;98748.55;105687;1254;72857;-28
2024/03/05 05:51:51;;;;;;;18.10;9.00;;;;;;;4.73;68.34;98750.27;105728;1261;74187;-27
2024/03/05 05:54:18;;;;;;;19.10;10.70;;;;;;;5.48;66.55;98754.98;105900;1254;73017;-26
2024/03/05 05:56:49;;;;;;;16.90;9.00;;;;;;;5.81;65.17;98755.61;105673;1254;61042;-26
2024/03/05 05:59:17;;;;;;;17.50;9.90;;;;;;;5.73;64.98;98758.55;105697;1259;61240;-27
2024/03/05 06:01:44;;;;;;;16.10;7.50;;;;;;;5.60;65.41;98760.80;105887;1257;72964;-26
2024/03/05 06:04:12;;;;;;;20.50;11.30;;;;;;;5.40;65.81;98758.33;105822;1254;74317;-27
2024/03/05 06:06:40;;;;;;;14.50;8.10;;;;;;;5.24;66.45;98761.73;105626;1254;72530;-27
2024/03/05 06:09:10;;;;;;;16.90;9.00;;;;;;;5.11;66.97;98763.89;105672;1254;61032;-26
2024/03/05 06:11:37;;;;;;;15.80;7.80;;;;;;;4.99;67.76;98765.21;105524;1260;61548;-27
2024/03/05 06:14:06;;;;;;;15.30;9.50;;;;;;;5.66;66.34;98770.55;105453;1255;72923;-27
2024/03/05 06:16:33;;;;;;;17.70;10.00;;;;;;;5.98;64.69;98771.90;105842;1254;74333;-28
2024/03/05 06:19:01;;;;;;;16.20;8.50;;;;;;;6.05;64.53;98774.89;105895;1254;73086;-26
2024/03/05 06:21:28;;;;;;;12.90;9.20;;;;;;;6.04;64.25;98776.35;105655;1254;61061;-27
2024/03/05 06:23:55;;;;;;;18.40;11.20;;;;;;;5.89;64.69;98777.02;105579;1257;61082;-27
2024/03/05 06:26:22;;;;;;;19.80;9.20;;;;;;;5.71;65.26;98779.02;105712;1254;73011;-27
2024/03/05 06:28:49;;;;;;;14.80;8.50;;;;;;;5.60;65.58;98780.60;105800;1257;74142;-27
2024/03/05 06:31:17;;;;;;;16.90;8.80;;;;;;;5.54;66.39;98782.86;105811;1254;72626;-27
2024/03/05 06:33:44;;;;;;;21.50;10.10;;;;;;;6.14;65.14;98783.83;105711;1257;61104;-26
2024/03/05 06:36:12;;;;;;;20.80;9.10;;;;;;;6.55;63.58;98782.98;105690;1259;61163;-26
2024/03/05 06:38:39;;;;;;;12.60;8.10;;;;;;;6.53;63.19;98778.23;105661;1254;73650;-26
2024/03/05 06:41:06;;;;;;;17.90;9.70;;;;;;;6.49;63.17;98782.83;105873;1253;74133;-26
2024/03/05 06:43:36;;;;;;;16.00;9.00;;;;;;;6.39;63.67;98783.50;105651;1259;72485;-26
2024/03/05 06:46:03;;;;;;;14.10;8.20;;;;;;;6.25;63.90;98779.10;105570;1259;61058;-26
2024/03/05 06:48:32;;;;;;;10.30;6.40;;;;;;;6.17;64.48;98783.79;105886;1257;61113;-27
2024/03/05 06:51:04;;;;;;;17.20;9.50;;;;;;;6.18;64.67;98782.52;105688;1254;73656;-26
2024/03/05 06:59:04;;;;;;;17.80;8.40;;;;;;;7.60;60.53;98781.07;105725;1254;61172;-26
2024/03/05 07:01:32;;;;;;;23.10;11.60;;;;;;;7.56;60.43;98780.97;105735;1258;61144;-26
2024/03/05 07:04:01;;;;;;;45.60;18.20;;;;;;;7.58;60.51;98779.80;105625;1259;74088;-26
2024/03/05 07:06:30;;;;;;;19.10;11.30;;;;;;;7.62;60.71;98777.12;105583;1261;74513;-26
2024/03/05 07:08:57;;;;;;;24.50;11.70;;;;;;;7.56;60.71;98785.70;105852;1254;72720;-26
2024/03/05 07:11:26;;;;;;;26.80;13.20;;;;;;;7.71;60.49;98785.81;105780;1253;61058;-26
2024/03/05 07:13:55;;;;;;;20.80;12.40;;;;;;;7.62;60.47;98785.91;105654;1255;61058;-26
2024/03/05 07:16:23;;;;;;;20.70;11.40;;;;;;;7.49;61.23;98789.30;105630;1254;75217;-27
2024/03/05 07:18:54;;;;;;;22.40;11.40;;;;;;;7.49;61.18;98786.55;105631;1260;76264;-26
2024/03/05 07:21:23;;;;;;;15.70;8.90;;;;;;;7.66;61.08;98785.81;105380;1254;74358;-27
2024/03/05 07:23:51;;;;;;;12.80;8.30;;;;;;;7.84;60.60;98787.05;105638;1260;61112;-26
2024/03/05 07:26:19;;;;;;;21.40;11.80;;;;;;;8.06;60.22;98783.02;105914;1257;61195;-27
2024/03/05 07:28:47;;;;;;;9.40;6.10;;;;;;;8.19;59.64;98785.38;105667;1254;73541;-26
2024/03/05 07:31:15;;;;;;;15.40;8.20;;;;;;;8.17;59.21;98788.61;105666;1254;74382;-26
2024/03/05 07:33:43;;;;;;;17.50;7.90;;;;;;;8.18;59.08;98787.85;105586;1254;73375;-26
2024/03/05 07:36:14;;;;;;;17.00;9.20;;;;;;;8.19;59.19;98788.80;105615;1259;61247;-26
2024/03/05 07:38:41;;;;;;;21.50;11.20;;;;;;;8.35;58.94;98786.19;105848;1254;61096;-26
2024/03/05 07:41:09;;;;;;;14.40;8.90;;;;;;;8.53;58.64;98793.55;105898;1254;75238;-27
2024/03/05 07:43:52;;;;;;;20.40;10.70;;;;;;;8.79;58.14;98791.54;105715;1254;76042;-26
2024/03/05 07:46:20;;;;;;;15.50;8.60;;;;;;;9.08;57.66;98792.45;105742;1260;71225;-27
2024/03/05 07:48:47;;;;;;;20.10;11.80;;;;;;;9.24;56.94;98791.54;105722;1253;61726;-27
2024/03/05 07:51:15;;;;;;;23.00;10.90;;;;;;;9.46;56.10;98794.79;105876;1257;61252;-27
2024/03/05 07:53:52;;;;;;;26.80;11.10;;;;;;;9.50;55.74;98795.83;105564;1260;75412;-26
2024/03/05 07:56:19;;;;;;;23.90;9.30;;;;;;;9.65;56.23;98792.58;105699;1254;74285;-27
2024/03/05 07:58:47;;;;;;;17.90;9.80;;;;;;;9.93;55.29;98797.73;105851;1253;74509;-27
2024/03/05 08:01:14;;;;;;;27.20;11.00;;;;;;;10.09;54.57;98796.38;105854;1253;61913;-27
2024/03/05 08:03:42;;;;;;;14.00;6.30;;;;;;;10.26;54.59;98798.93;105882;1257;62275;-27
2024/03/05 08:06:09;;;;;;;15.50;8.80;;;;;;;10.22;54.18;98797.54;105832;1254;75515;-27
2024/03/05 08:16:12;;;;;;;12.80;6.40;;;;;;;10.59;53.30;98802.64;102625;1292;600258;-25
2024/03/05 08:18:41;;;;;;;23.60;10.10;;;;;;;10.74;52.59;98803.30;104828;1269;62789;-25
2024/03/05 08:21:09;;;;;;;17.50;9.00;;;;;;;10.94;52.04;98806.79;104906;1270;62828;-25
2024/03/05 08:23:38;;;;;;;16.70;8.10;;;;;;;11.14;51.40;98802.84;104825;1266;74656;-25
2024/03/05 08:26:07;;;;;;;15.20;6.60;;;;;;;11.35;50.99;98803.98;104902;1266;76784;-25
2024/03/05 08:28:35;;;;;;;15.50;8.10;;;;;;;11.36;51.03;98799.33;104885;1267;76782;-24
2024/03/05 08:31:04;;;;;;;20.90;8.50;;;;;;;11.26;50.46;98802.30;105033;1263;61170;-25
2024/03/05 08:33:32;;;;;;;19.40;9.40;;;;;;;11.24;50.19;98802.83;105119;1262;62861;-25
2024/03/05 08:36:00;;;;;;;17.40;9.50;;;;;;;11.39;50.39;98804.12;105046;1268;75016;-25
2024/03/05 08:38:28;;;;;;;19.80;10.40;;;;;;;11.54;49.90;98801.08;104807;1263;76454;-25
2024/03/05 08:40:58;;;;;;;25.90;10.00;;;;;;;11.65;49.97;98801.10;104839;1266;75552;-26
2024/03/05 08:43:27;;;;;;;16.10;9.00;;;;;;;11.74;49.34;98797.57;105072;1262;61685;-26
2024/03/05 08:45:55;;;;;;;18.20;8.80;;;;;;;11.84;48.85;98799.42;105063;1263;62819;-25
2024/03/05 08:48:23;;;;;;;21.70;9.30;;;;;;;11.85;49.05;98802.28;105540;1262;75784;-26
2024/03/05 08:50:51;;;;;;;18.40;6.80;;;;;;;11.86;48.39;98803.43;105538;1256;77695;-26
2024/03/05 08:53:19;;;;;;;21.80;10.30;;;;;;;11.84;48.76;98804.30;105429;1260;75252;-26
2024/03/05 08:55:47;;;;;;;13.00;7.90;;;;;;;11.87;48.66;98801.08;105600;1261;64144;-26
2024/03/05 08:58:15;;;;;;;12.10;7.20;;;;;;;11.98;48.63;98799.23;105476;1257;61183;-25
2024/03/05 09:00:43;;;;;;;13.80;7.60;;;;;;;12.12;48.13;98801.24;105389;1256;75093;-26
2024/03/05 09:03:14;;;;;;;16.40;9.30;;;;;;;12.34;48.03;98802.41;105663;1258;76939;-26
2024/03/05 09:05:42;;;;;;;15.10;7.90;;;;;;;12.45;48.26;98799.15;105828;1253;75556;-26
2024/03/05 09:08:14;;;;;;;14.50;9.90;;;;;;;12.45;47.84;98802.39;105880;1253;62857;-26
2024/03/05 09:10:44;;;;;;;17.30;9.00;;;;;;;12.56;47.40;98802.30;105759;1254;61899;-26
2024/03/05 09:13:12;;;;;;;22.80;9.00;;;;;;;12.66;47.36;98802.56;105719;1257;74835;-26
2024/03/05 09:15:41;;;;;;;11.50;6.90;;;;;;;12.83;46.31;98801.32;105735;1253;76809;-26
2024/03/05 09:18:13;;;;;;;14.90;7.80;;;;;;;12.97;46.24;98799.99;105670;1256;75362;-26
2024/03/05 09:20:42;;;;;;;16.30;7.90;;;;;;;13.08;46.08;98800.85;105625;1253;61863;-26
2024/03/05 09:23:11;;;;;;;11.30;6.00;;;;;;;13.20;46.17;98799.17;105528;1254;62598;-26
2024/03/05 09:25:41;;;;;;;16.20;8.20;;;;;;;13.12;45.54;98802.45;105594;1258;75746;-26
2024/03/05 09:28:10;;;;;;;15.40;8.40;;;;;;;13.37;45.48;98803.67;105666;1260;75617;-26
2024/03/05 09:30:39;;;;;;;14.80;7.60;;;;;;;13.55;44.79;98802.86;105582;1253;75679;-26
2024/03/05 09:33:09;;;;;;;15.80;8.10;;;;;;;13.60;45.28;98802.18;105751;1253;62540;-26
2024/03/05 09:35:39;;;;;;;21.50;11.00;;;;;;;13.72;44.73;98808.75;105667;1253;61457;-26
2024/03/05 09:38:07;;;;;;;17.40;9.30;;;;;;;13.93;45.08;98802.98;105701;1262;73756;-26
2024/03/05 09:40:37;;;;;;;13.40;7.90;;;;;;;14.09;43.79;98802.45;105779;1253;78455;-26
2024/03/05 09:43:06;;;;;;;18.70;8.90;;;;;;;14.23;42.88;98804.27;105629;1253;75405;-26
2024/03/05 09:45:36;;;;;;;12.40;7.20;;;;;;;14.33;43.11;98797.67;105605;1253;61734;-26
2024/03/05 09:48:05;;;;;;;13.30;7.00;;;;;;;14.19;42.41;98793.44;105366;1260;63857;-26
2024/03/05 09:50:33;;;;;;;9.50;5.90;;;;;;;14.11;42.39;98794.60;105672;1253;73607;-26
2024/03/05 09:53:02;;;;;;;14.80;6.50;;;;;;;13.97;42.29;98796.33;105600;1261;77023;-26
2024/03/05 09:55:30;;;;;;;10.80;6.90;;;;;;;13.89;42.43;98790.46;105457;1262;75498;-26
2024/03/05 09:57:59;;;;;;;11.10;6.90;;;;;;;13.79;42.50;98792.05;105611;1253;61163;-26
2024/03/05 10:00:30;;;;;;;11.10;7.00;;;;;;;13.89;42.13;98796.58;105588;1253;61428;-25
2024/03/05 10:02:58;;;;;;;15.30;8.00;;;;;;;14.01;42.27;98794.86;105521;1253;75308;-25
2024/03/05 10:05:27;;;;;;;15.30;7.80;;;;;;;14.32;41.60;98793.70;105660;1258;75577;-25
2024/03/05 10:07:55;;;;;;;23.50;9.00;;;;;;;14.51;41.22;98794.62;105794;1253;74640;-25
2024/03/05 10:10:25;;;;;;;11.30;6.80;;;;;;;14.53;40.98;98789.45;105645;1258;61372;-25
2024/03/05 10:12:53;;;;;;;14.80;8.40;;;;;;;14.60;40.85;98784.79;105506;1258;62673;-25
2024/03/05 10:15:24;;;;;;;17.90;9.20;;;;;;;14.81;40.92;98793.64;105180;1253;75545;-25
2024/03/05 10:17:54;;;;;;;8.60;5.10;;;;;;;15.02;40.69;98793.08;105679;1258;77117;-25
2024/03/05 10:20:36;;;;;;;18.00;9.10;;;;;;;15.10;40.27;98791.42;105706;1253;74402;-26
2024/03/05 10:23:07;;;;;;;16.50;9.10;;;;;;;15.17;40.33;98788.63;105643;1253;62759;-25
2024/03/05 10:25:35;;;;;;;15.50;8.70;;;;;;;15.30;39.82;98792.61;105497;1260;63864;-25
2024/03/05 10:28:08;;;;;;;17.30;8.40;;;;;;;15.49;40.22;98790.66;105494;1253;75758;-25
2024/03/05 10:30:37;;;;;;;9.10;5.50;;;;;;;15.64;38.99;98788.04;105658;1258;77112;-26
2024/03/05 10:33:09;;;;;;;14.50;7.50;;;;;;;15.47;37.78;98785.11;105795;1253;75433;-26
2024/03/05 10:35:40;;;;;;;15.10;7.60;;;;;;;15.28;38.14;98784.82;105719;1254;61166;-26
2024/03/05 10:38:09;;;;;;;13.30;6.00;;;;;;;15.38;37.77;98784.10;105804;1253;61643;-26
2024/03/05 10:40:39;;;;;;;7.20;4.40;;;;;;;15.33;38.70;98787.41;105660;1253;74827;-26
2024/03/05 10:43:08;;;;;;;13.80;6.50;;;;;;;15.38;37.44;98782.52;105669;1261;76801;-26
2024/03/05 10:45:41;;;;;;;7.40;4.60;;;;;;;15.19;37.73;98779.94;105596;1253;73627;-26
2024/03/05 10:48:09;;;;;;;13.00;6.60;;;;;;;15.08;38.32;98782.21;105426;1253;61410;-26
2024/03/05 10:50:39;;;;;;;14.80;6.80;;;;;;;14.90;38.23;98770.90;105369;1259;63857;-26
2024/03/05 10:53:08;;;;;;;10.00;6.10;;;;;;;15.11;38.60;98780.48;105506;1253;75918;-26
2024/03/05 10:55:37;;;;;;;14.50;7.50;;;;;;;15.21;39.03;98779.89;105477;1256;77221;-26
2024/03/05 10:58:13;;;;;;;18.70;7.40;;;;;;;15.64;37.95;98776.69;105555;1253;75004;-26
2024/03/05 11:00:43;;;;;;;13.70;5.00;;;;;;;15.75;37.30;98772.01;105636;1261;61265;-26
2024/03/05 11:03:12;;;;;;;10.00;5.20;;;;;;;15.37;37.16;98768.62;105616;1253;61161;-26
2024/03/05 11:05:51;;;;;;;12.60;6.20;;;;;;;15.28;36.93;98769.20;105549;1260;74446;-26
2024/03/05 11:08:20;;;;;;;13.30;6.40;;;;;;;15.37;36.71;98774.39;105639;1260;75788;-26
2024/03/05 11:11:05;;;;;;;12.40;6.40;;;;;;;15.46;36.85;98767.47;105663;1260;75211;-26
2024/03/05 11:13:35;;;;;;;13.40;7.00;;;;;;;15.55;37.03;98774.79;105668;1254;62954;-26
2024/03/05 11:16:06;;;;;;;15.90;8.30;;;;;;;15.98;36.83;98765.40;105763;1259;63959;-26
2024/03/05 11:18:38;;;;;;;12.10;6.90;;;;;;;16.07;36.31;98765.25;105457;1256;75629;-26
2024/03/05 11:21:10;;;;;;;11.30;5.90;;;;;;;15.68;36.21;98760.41;105656;1259;76083;-26
2024/03/05 11:23:50;;;;;;;11.60;6.30;;;;;;;15.37;36.96;98762.18;105658;1253;74411;-26
2024/03/05 11:26:20;;;;;;;11.30;4.20;;;;;;;15.63;36.69;98768.69;105736;1253;61222;-26
2024/03/05 11:28:48;;;;;;;10.50;5.40;;;;;;;15.58;36.14;98762.02;105476;1260;63399;-26
2024/03/05 11:31:18;;;;;;;12.30;6.10;;;;;;;15.69;36.75;98765.44;105608;1260;75163;-26
2024/03/05 11:33:57;;;;;;;13.50;6.60;;;;;;;15.89;36.39;98756.73;105614;1253;76810;-26
2024/03/05 11:36:26;;;;;;;13.30;6.90;;;;;;;15.84;35.86;98756.70;105509;1261;75622;-26
2024/03/05 11:39:20;;;;;;;14.50;6.20;;;;;;;15.89;36.68;98755.79;105569;1254;61212;-26
2024/03/05 11:41:48;;;;;;;10.50;6.30;;;;;;;15.70;36.20;98756.98;105438;1254;62471;-26
2024/03/05 11:44:31;;;;;;;12.30;6.00;;;;;;;15.68;36.82;98752.61;105741;1256;75535;-26
2024/03/05 11:46:59;;;;;;;10.70;6.20;;;;;;;15.67;37.04;98758.52;105593;1259;76452;-26
2024/03/05 11:49:27;;;;;;;12.80;7.00;;;;;;;15.44;38.13;98757.21;105605;1253;74146;-26
2024/03/05 11:51:56;;;;;;;12.70;6.80;;;;;;;15.38;38.22;98761.19;105637;1254;61889;-26
2024/03/05 11:54:25;;;;;;;14.10;7.20;;;;;;;15.43;38.39;98765.77;105582;1253;61277;-26
2024/03/05 11:57:00;;;;;;;5.40;4.00;;;;;;;15.77;37.85;98762.48;105806;1257;74073;-26
2024/03/05 11:59:34;;;;;;;13.30;7.40;;;;;;;15.60;37.42;98762.36;105637;1260;77194;-26
2024/03/05 12:02:12;;;;;;;13.30;7.60;;;;;;;15.59;37.81;98758.09;105648;1255;75497;-26
2024/03/05 12:04:41;;;;;;;9.90;5.70;;;;;;;15.77;37.63;98756.04;105570;1254;62910;-26
2024/03/05 12:07:13;;;;;;;14.50;6.20;;;;;;;15.66;38.04;98758.23;105693;1259;62941;-26
2024/03/05 12:09:41;;;;;;;10.00;6.20;;;;;;;15.52;38.47;98752.39;105615;1258;77059;-26
2024/03/05 12:12:10;;;;;;;11.70;5.60;;;;;;;15.27;38.95;98755.77;105659;1257;75415;-26
2024/03/05 12:14:51;;;;;;;15.00;6.70;;;;;;;15.13;38.94;98757.73;105424;1253;76606;-26
2024/03/05 12:17:19;;;;;;;18.60;7.50;;;;;;;15.12;38.69;98760.59;105552;1254;61757;-26
2024/03/05 12:20:07;;;;;;;12.30;7.00;;;;;;;15.31;39.08;98756.32;105698;1258;62480;-26
2024/03/05 12:22:39;;;;;;;14.40;6.50;;;;;;;15.27;39.40;98752.02;105666;1259;75802;-26
2024/03/05 12:25:10;;;;;;;16.00;7.00;;;;;;;15.16;38.32;98753.32;105608;1261;75786;-26
2024/03/05 12:27:38;;;;;;;12.60;6.90;;;;;;;15.32;38.85;98755.66;105760;1253;76097;-26
2024/03/05 12:30:07;;;;;;;14.00;5.00;;;;;;;15.34;38.61;98744.31;105677;1259;61574;-26
2024/03/05 12:32:36;;;;;;;13.60;5.90;;;;;;;15.11;38.63;98750.06;105651;1259;61395;-26
2024/03/05 12:35:05;;;;;;;14.10;6.20;;;;;;;14.97;38.20;98746.56;105463;1255;75010;-26
2024/03/05 12:37:35;;;;;;;15.40;6.80;;;;;;;14.85;38.65;98750.77;105254;1261;75296;-26